sensor_id;sensor_type;location;lat;lon;timestamp;P1;durP1;ratioP1;P2;durP2;ratioP2
18290;SDS011;9271;48.590;8.866;2023-04-19T00:00:05;8.67;;;7.87;;
18290;SDS011;9271;48.590;8.866;2023-04-19T00:02:33;8.07;;;7.27;;
18290;SDS011;9271;48.590;8.866;2023-04-19T00:05:00;8.57;;;7.67;;
18290;SDS011;9271;48.590;8.866;2023-04-19T00:07:26;8.50;;;7.70;;
18290;SDS011;9271;48.590;8.866;2023-04-19T00:09:54;8.20;;;7.40;;
18290;SDS011;9271;48.590;8.866;2023-04-19T00:12:21;8.37;;;7.57;;
18290;SDS011;9271;48.590;8.866;2023-04-19T00:14:48;8.27;;;7.47;;
18290;SDS011;9271;48.590;8.866;2023-04-19T00:17:14;8.57;;;7.77;;
18290;SDS011;9271;48.590;8.866;2023-04-19T00:19:41;8.70;;;7.90;;
18290;SDS011;9271;48.590;8.866;2023-04-19T00:22:08;7.97;;;7.27;;
18290;SDS011;9271;48.590;8.866;2023-04-19T00:24:35;8.67;;;7.87;;
18290;SDS011;9271;48.590;8.866;2023-04-19T00:27:03;8.20;;;7.40;;
18290;SDS011;9271;48.590;8.866;2023-04-19T00:29:29;8.23;;;7.43;;
18290;SDS011;9271;48.590;8.866;2023-04-19T00:31:56;8.47;;;7.67;;
18290;SDS011;9271;48.590;8.866;2023-04-19T00:34:22;8.60;;;7.80;;
18290;SDS011;9271;48.590;8.866;2023-04-19T00:36:50;8.97;;;8.07;;
18290;SDS011;9271;48.590;8.866;2023-04-19T00:39:16;7.90;;;7.20;;
18290;SDS011;9271;48.590;8.866;2023-04-19T00:41:43;8.93;;;8.03;;
18290;SDS011;9271;48.590;8.866;2023-04-19T00:44:11;8.30;;;7.50;;
18290;SDS011;9271;48.590;8.866;2023-04-19T00:46:37;8.60;;;7.80;;
18290;SDS011;9271;48.590;8.866;2023-04-19T00:49:05;8.27;;;7.57;;
18290;SDS011;9271;48.590;8.866;2023-04-19T00:51:32;8.70;;;7.90;;
18290;SDS011;9271;48.590;8.866;2023-04-19T00:53:59;8.53;;;7.73;;
18290;SDS011;9271;48.590;8.866;2023-04-19T00:56:27;9.37;;;8.40;;
18290;SDS011;9271;48.590;8.866;2023-04-19T00:58:55;9.37;;;8.43;;
18290;SDS011;9271;48.590;8.866;2023-04-19T01:01:23;10.03;;;8.33;;
18290;SDS011;9271;48.590;8.866;2023-04-19T01:03:49;9.63;;;8.73;;
18290;SDS011;9271;48.590;8.866;2023-04-19T01:06:16;9.70;;;8.80;;
18290;SDS011;9271;48.590;8.866;2023-04-19T01:08:43;8.73;;;7.93;;
18290;SDS011;9271;48.590;8.866;2023-04-19T01:11:10;9.13;;;8.30;;
18290;SDS011;9271;48.590;8.866;2023-04-19T01:13:36;9.33;;;8.43;;
18290;SDS011;9271;48.590;8.866;2023-04-19T01:16:03;9.37;;;8.43;;
18290;SDS011;9271;48.590;8.866;2023-04-19T01:18:32;9.63;;;8.73;;
18290;SDS011;9271;48.590;8.866;2023-04-19T01:21:01;10.33;;;9.27;;
18290;SDS011;9271;48.590;8.866;2023-04-19T01:23:29;9.20;;;8.40;;
18290;SDS011;9271;48.590;8.866;2023-04-19T01:25:56;9.13;;;8.30;;
18290;SDS011;9271;48.590;8.866;2023-04-19T01:28:23;9.03;;;8.23;;
18290;SDS011;9271;48.590;8.866;2023-04-19T01:30:49;8.73;;;7.90;;
18290;SDS011;9271;48.590;8.866;2023-04-19T01:33:17;9.67;;;8.40;;
18290;SDS011;9271;48.590;8.866;2023-04-19T01:35:45;9.73;;;8.53;;
18290;SDS011;9271;48.590;8.866;2023-04-19T01:38:12;9.47;;;8.57;;
18290;SDS011;9271;48.590;8.866;2023-04-19T01:40:40;8.97;;;8.07;;
18290;SDS011;9271;48.590;8.866;2023-04-19T01:43:07;9.97;;;8.97;;
18290;SDS011;9271;48.590;8.866;2023-04-19T01:45:36;9.80;;;8.80;;
18290;SDS011;9271;48.590;8.866;2023-04-19T01:48:03;9.73;;;8.73;;
18290;SDS011;9271;48.590;8.866;2023-04-19T01:50:30;10.00;;;9.07;;
18290;SDS011;9271;48.590;8.866;2023-04-19T01:52:56;10.47;;;8.57;;
18290;SDS011;9271;48.590;8.866;2023-04-19T01:55:24;9.37;;;8.47;;
18290;SDS011;9271;48.590;8.866;2023-04-19T01:57:52;10.97;;;9.20;;
18290;SDS011;9271;48.590;8.866;2023-04-19T02:00:19;9.33;;;8.53;;
18290;SDS011;9271;48.590;8.866;2023-04-19T02:02:45;9.10;;;8.27;;
18290;SDS011;9271;48.590;8.866;2023-04-19T02:05:12;9.97;;;9.00;;
18290;SDS011;9271;48.590;8.866;2023-04-19T02:07:39;10.17;;;9.17;;
18290;SDS011;9271;48.590;8.866;2023-04-19T02:10:08;9.77;;;8.77;;
18290;SDS011;9271;48.590;8.866;2023-04-19T02:12:35;10.30;;;9.30;;
18290;SDS011;9271;48.590;8.866;2023-04-19T02:15:03;9.87;;;8.93;;
18290;SDS011;9271;48.590;8.866;2023-04-19T02:17:30;9.73;;;8.83;;
18290;SDS011;9271;48.590;8.866;2023-04-19T02:19:57;10.37;;;9.27;;
18290;SDS011;9271;48.590;8.866;2023-04-19T02:22:24;9.60;;;8.60;;
18290;SDS011;9271;48.590;8.866;2023-04-19T02:24:50;10.27;;;9.27;;
18290;SDS011;9271;48.590;8.866;2023-04-19T02:27:17;9.33;;;8.50;;
18290;SDS011;9271;48.590;8.866;2023-04-19T02:29:44;9.93;;;8.93;;
18290;SDS011;9271;48.590;8.866;2023-04-19T02:32:12;10.40;;;9.30;;
18290;SDS011;9271;48.590;8.866;2023-04-19T02:34:39;10.53;;;9.43;;
18290;SDS011;9271;48.590;8.866;2023-04-19T02:37:05;9.77;;;8.83;;
18290;SDS011;9271;48.590;8.866;2023-04-19T02:39:32;10.30;;;8.83;;
18290;SDS011;9271;48.590;8.866;2023-04-19T02:41:59;10.07;;;9.07;;
18290;SDS011;9271;48.590;8.866;2023-04-19T02:44:26;10.20;;;9.20;;
18290;SDS011;9271;48.590;8.866;2023-04-19T02:46:53;10.53;;;9.43;;
18290;SDS011;9271;48.590;8.866;2023-04-19T02:49:22;12.47;;;9.70;;
18290;SDS011;9271;48.590;8.866;2023-04-19T02:51:49;10.50;;;9.40;;
18290;SDS011;9271;48.590;8.866;2023-04-19T02:54:16;10.33;;;9.33;;
18290;SDS011;9271;48.590;8.866;2023-04-19T02:56:43;10.67;;;9.67;;
18290;SDS011;9271;48.590;8.866;2023-04-19T02:59:10;10.60;;;9.60;;
18290;SDS011;9271;48.590;8.866;2023-04-19T03:01:36;11.73;;;9.70;;
18290;SDS011;9271;48.590;8.866;2023-04-19T03:04:03;10.10;;;8.93;;
18290;SDS011;9271;48.590;8.866;2023-04-19T03:06:31;10.83;;;9.73;;
18290;SDS011;9271;48.590;8.866;2023-04-19T03:08:58;11.13;;;9.93;;
18290;SDS011;9271;48.590;8.866;2023-04-19T03:11:24;10.27;;;9.27;;
18290;SDS011;9271;48.590;8.866;2023-04-19T03:13:51;10.20;;;9.23;;
18290;SDS011;9271;48.590;8.866;2023-04-19T03:16:18;10.47;;;9.47;;
18290;SDS011;9271;48.590;8.866;2023-04-19T03:18:45;10.33;;;9.30;;
18290;SDS011;9271;48.590;8.866;2023-04-19T03:21:11;9.83;;;8.83;;
18290;SDS011;9271;48.590;8.866;2023-04-19T03:23:39;10.03;;;9.00;;
18290;SDS011;9271;48.590;8.866;2023-04-19T03:26:06;10.23;;;9.20;;
18290;SDS011;9271;48.590;8.866;2023-04-19T03:28:33;10.37;;;9.27;;
18290;SDS011;9271;48.590;8.866;2023-04-19T03:31:00;10.53;;;9.43;;
18290;SDS011;9271;48.590;8.866;2023-04-19T03:33:26;10.93;;;9.80;;
18290;SDS011;9271;48.590;8.866;2023-04-19T03:35:53;10.37;;;9.27;;
18290;SDS011;9271;48.590;8.866;2023-04-19T03:38:19;11.00;;;9.90;;
18290;SDS011;9271;48.590;8.866;2023-04-19T03:40:47;11.43;;;10.33;;
18290;SDS011;9271;48.590;8.866;2023-04-19T03:43:14;11.57;;;10.37;;
18290;SDS011;9271;48.590;8.866;2023-04-19T03:45:40;12.17;;;10.30;;
18290;SDS011;9271;48.590;8.866;2023-04-19T03:48:07;11.40;;;10.30;;
18290;SDS011;9271;48.590;8.866;2023-04-19T03:50:34;12.90;;;10.27;;
18290;SDS011;9271;48.590;8.866;2023-04-19T03:53:02;12.17;;;10.97;;
18290;SDS011;9271;48.590;8.866;2023-04-19T03:55:29;12.60;;;11.30;;
18290;SDS011;9271;48.590;8.866;2023-04-19T03:57:57;13.63;;;11.70;;
18290;SDS011;9271;48.590;8.866;2023-04-19T04:00:23;11.20;;;10.10;;
18290;SDS011;9271;48.590;8.866;2023-04-19T04:02:51;12.73;;;11.43;;
18290;SDS011;9271;48.590;8.866;2023-04-19T04:05:18;12.47;;;11.17;;
18290;SDS011;9271;48.590;8.866;2023-04-19T04:07:44;12.87;;;11.57;;
18290;SDS011;9271;48.590;8.866;2023-04-19T04:10:11;13.17;;;11.77;;
18290;SDS011;9271;48.590;8.866;2023-04-19T04:12:38;15.03;;;12.30;;
18290;SDS011;9271;48.590;8.866;2023-04-19T04:15:06;12.83;;;11.23;;
18290;SDS011;9271;48.590;8.866;2023-04-19T04:17:34;12.97;;;11.67;;
18290;SDS011;9271;48.590;8.866;2023-04-19T04:20:00;13.30;;;11.67;;
18290;SDS011;9271;48.590;8.866;2023-04-19T04:22:27;12.90;;;11.50;;
18290;SDS011;9271;48.590;8.866;2023-04-19T04:24:54;13.17;;;11.73;;
18290;SDS011;9271;48.590;8.866;2023-04-19T04:27:22;13.50;;;11.93;;
18290;SDS011;9271;48.590;8.866;2023-04-19T04:29:48;13.70;;;11.67;;
18290;SDS011;9271;48.590;8.866;2023-04-19T04:32:17;14.13;;;12.00;;
18290;SDS011;9271;48.590;8.866;2023-04-19T04:34:47;15.30;;;12.60;;
18290;SDS011;9271;48.590;8.866;2023-04-19T04:37:13;17.27;;;14.80;;
18290;SDS011;9271;48.590;8.866;2023-04-19T04:39:40;14.40;;;12.30;;
18290;SDS011;9271;48.590;8.866;2023-04-19T04:42:07;18.53;;;12.53;;
18290;SDS011;9271;48.590;8.866;2023-04-19T04:44:34;13.30;;;11.90;;
18290;SDS011;9271;48.590;8.866;2023-04-19T04:47:00;15.87;;;12.57;;
18290;SDS011;9271;48.590;8.866;2023-04-19T04:49:28;14.60;;;11.73;;
18290;SDS011;9271;48.590;8.866;2023-04-19T04:51:55;14.30;;;12.80;;
18290;SDS011;9271;48.590;8.866;2023-04-19T04:54:22;14.80;;;13.23;;
18290;SDS011;9271;48.590;8.866;2023-04-19T04:56:49;13.97;;;12.40;;
18290;SDS011;9271;48.590;8.866;2023-04-19T04:59:16;14.67;;;13.07;;
18290;SDS011;9271;48.590;8.866;2023-04-19T05:01:42;14.17;;;12.77;;
18290;SDS011;9271;48.590;8.866;2023-04-19T05:04:09;14.03;;;12.60;;
18290;SDS011;9271;48.590;8.866;2023-04-19T05:06:37;13.77;;;12.37;;
18290;SDS011;9271;48.590;8.866;2023-04-19T05:09:04;15.80;;;13.23;;
18290;SDS011;9271;48.590;8.866;2023-04-19T05:11:31;18.37;;;14.77;;
18290;SDS011;9271;48.590;8.866;2023-04-19T05:13:58;15.80;;;13.03;;
18290;SDS011;9271;48.590;8.866;2023-04-19T05:16:25;19.33;;;15.53;;
18290;SDS011;9271;48.590;8.866;2023-04-19T05:18:52;19.43;;;14.20;;
18290;SDS011;9271;48.590;8.866;2023-04-19T05:21:19;16.93;;;13.17;;
18290;SDS011;9271;48.590;8.866;2023-04-19T05:23:47;16.70;;;14.70;;
18290;SDS011;9271;48.590;8.866;2023-04-19T05:26:13;29.73;;;16.87;;
18290;SDS011;9271;48.590;8.866;2023-04-19T05:28:40;23.90;;;17.97;;
18290;SDS011;9271;48.590;8.866;2023-04-19T05:31:08;15.27;;;13.77;;
18290;SDS011;9271;48.590;8.866;2023-04-19T05:33:35;14.97;;;13.37;;
18290;SDS011;9271;48.590;8.866;2023-04-19T05:36:01;15.90;;;13.77;;
18290;SDS011;9271;48.590;8.866;2023-04-19T05:38:28;14.30;;;12.80;;
18290;SDS011;9271;48.590;8.866;2023-04-19T05:40:56;16.00;;;12.83;;
18290;SDS011;9271;48.590;8.866;2023-04-19T05:43:23;15.30;;;13.70;;
18290;SDS011;9271;48.590;8.866;2023-04-19T05:45:49;14.77;;;13.30;;
18290;SDS011;9271;48.590;8.866;2023-04-19T05:48:16;15.13;;;13.33;;
18290;SDS011;9271;48.590;8.866;2023-04-19T05:50:43;15.10;;;13.27;;
18290;SDS011;9271;48.590;8.866;2023-04-19T05:53:09;14.90;;;12.80;;
18290;SDS011;9271;48.590;8.866;2023-04-19T05:55:36;14.90;;;13.33;;
18290;SDS011;9271;48.590;8.866;2023-04-19T05:58:04;15.23;;;13.00;;
18290;SDS011;9271;48.590;8.866;2023-04-19T06:00:31;14.70;;;12.90;;
18290;SDS011;9271;48.590;8.866;2023-04-19T06:02:57;14.43;;;12.93;;
18290;SDS011;9271;48.590;8.866;2023-04-19T06:05:24;15.27;;;13.10;;
18290;SDS011;9271;48.590;8.866;2023-04-19T06:07:51;15.87;;;14.00;;
18290;SDS011;9271;48.590;8.866;2023-04-19T06:10:20;14.80;;;13.30;;
18290;SDS011;9271;48.590;8.866;2023-04-19T06:12:46;16.10;;;13.33;;
18290;SDS011;9271;48.590;8.866;2023-04-19T06:15:14;15.30;;;13.47;;
18290;SDS011;9271;48.590;8.866;2023-04-19T06:17:41;14.20;;;12.70;;
18290;SDS011;9271;48.590;8.866;2023-04-19T06:20:08;15.07;;;13.43;;
18290;SDS011;9271;48.590;8.866;2023-04-19T06:22:40;14.30;;;12.60;;
18290;SDS011;9271;48.590;8.866;2023-04-19T06:25:07;14.00;;;12.67;;
18290;SDS011;9271;48.590;8.866;2023-04-19T06:27:34;14.40;;;12.73;;
18290;SDS011;9271;48.590;8.866;2023-04-19T06:30:01;15.40;;;13.20;;
18290;SDS011;9271;48.590;8.866;2023-04-19T06:32:29;12.83;;;11.47;;
18290;SDS011;9271;48.590;8.866;2023-04-19T06:34:55;14.13;;;12.70;;
18290;SDS011;9271;48.590;8.866;2023-04-19T06:37:22;13.60;;;12.20;;
18290;SDS011;9271;48.590;8.866;2023-04-19T06:39:49;13.83;;;12.27;;
18290;SDS011;9271;48.590;8.866;2023-04-19T06:42:15;13.10;;;11.73;;
18290;SDS011;9271;48.590;8.866;2023-04-19T06:44:43;13.60;;;12.03;;
18290;SDS011;9271;48.590;8.866;2023-04-19T06:47:10;14.77;;;12.23;;
18290;SDS011;9271;48.590;8.866;2023-04-19T06:49:38;12.83;;;11.47;;
18290;SDS011;9271;48.590;8.866;2023-04-19T06:52:05;12.77;;;11.57;;
18290;SDS011;9271;48.590;8.866;2023-04-19T06:54:31;12.60;;;11.07;;
18290;SDS011;9271;48.590;8.866;2023-04-19T06:56:58;13.57;;;12.10;;
18290;SDS011;9271;48.590;8.866;2023-04-19T06:59:26;12.73;;;11.43;;
18290;SDS011;9271;48.590;8.866;2023-04-19T07:01:55;13.17;;;11.83;;
18290;SDS011;9271;48.590;8.866;2023-04-19T07:04:22;13.57;;;12.27;;
18290;SDS011;9271;48.590;8.866;2023-04-19T07:06:51;13.10;;;11.23;;
18290;SDS011;9271;48.590;8.866;2023-04-19T07:09:18;12.63;;;11.33;;
18290;SDS011;9271;48.590;8.866;2023-04-19T07:11:44;12.90;;;11.60;;
18290;SDS011;9271;48.590;8.866;2023-04-19T07:14:12;13.00;;;11.80;;
18290;SDS011;9271;48.590;8.866;2023-04-19T07:16:39;13.73;;;11.07;;
18290;SDS011;9271;48.590;8.866;2023-04-19T07:19:06;12.00;;;10.53;;
18290;SDS011;9271;48.590;8.866;2023-04-19T07:21:32;12.20;;;11.00;;
18290;SDS011;9271;48.590;8.866;2023-04-19T07:24:01;12.23;;;10.70;;
18290;SDS011;9271;48.590;8.866;2023-04-19T07:26:27;12.83;;;11.53;;
18290;SDS011;9271;48.590;8.866;2023-04-19T07:28:54;12.17;;;10.97;;
18290;SDS011;9271;48.590;8.866;2023-04-19T07:31:21;12.77;;;11.47;;
18290;SDS011;9271;48.590;8.866;2023-04-19T07:33:48;12.27;;;11.07;;
18290;SDS011;9271;48.590;8.866;2023-04-19T07:36:15;12.57;;;11.27;;
18290;SDS011;9271;48.590;8.866;2023-04-19T07:38:42;11.50;;;10.37;;
18290;SDS011;9271;48.590;8.866;2023-04-19T07:41:10;11.87;;;10.40;;
18290;SDS011;9271;48.590;8.866;2023-04-19T07:43:37;13.67;;;11.00;;
18290;SDS011;9271;48.590;8.866;2023-04-19T07:46:07;14.83;;;11.77;;
18290;SDS011;9271;48.590;8.866;2023-04-19T07:48:35;12.17;;;11.07;;
18290;SDS011;9271;48.590;8.866;2023-04-19T07:51:07;12.00;;;10.80;;
18290;SDS011;9271;48.590;8.866;2023-04-19T07:53:34;11.70;;;10.60;;
18290;SDS011;9271;48.590;8.866;2023-04-19T07:56:01;12.00;;;10.40;;
18290;SDS011;9271;48.590;8.866;2023-04-19T07:58:29;11.20;;;10.13;;
18290;SDS011;9271;48.590;8.866;2023-04-19T08:00:55;11.03;;;9.90;;
18290;SDS011;9271;48.590;8.866;2023-04-19T08:03:22;11.63;;;9.80;;
18290;SDS011;9271;48.590;8.866;2023-04-19T08:05:49;9.93;;;9.00;;
18290;SDS011;9271;48.590;8.866;2023-04-19T08:08:15;10.07;;;9.00;;
18290;SDS011;9271;48.590;8.866;2023-04-19T08:10:42;10.07;;;9.10;;
18290;SDS011;9271;48.590;8.866;2023-04-19T08:13:08;9.60;;;8.70;;
18290;SDS011;9271;48.590;8.866;2023-04-19T08:15:37;10.03;;;9.00;;
18290;SDS011;9271;48.590;8.866;2023-04-19T08:18:03;9.30;;;8.40;;
18290;SDS011;9271;48.590;8.866;2023-04-19T08:20:30;8.70;;;7.77;;
18290;SDS011;9271;48.590;8.866;2023-04-19T08:22:57;8.40;;;7.60;;
18290;SDS011;9271;48.590;8.866;2023-04-19T08:25:24;8.17;;;7.30;;
18290;SDS011;9271;48.590;8.866;2023-04-19T08:27:52;7.70;;;7.00;;
18290;SDS011;9271;48.590;8.866;2023-04-19T08:30:19;7.57;;;6.90;;
18290;SDS011;9271;48.590;8.866;2023-04-19T08:32:47;8.40;;;7.60;;
18290;SDS011;9271;48.590;8.866;2023-04-19T08:35:14;8.17;;;7.37;;
18290;SDS011;9271;48.590;8.866;2023-04-19T08:37:40;10.00;;;7.60;;
18290;SDS011;9271;48.590;8.866;2023-04-19T08:40:07;8.30;;;7.50;;
18290;SDS011;9271;48.590;8.866;2023-04-19T08:42:35;8.17;;;6.93;;
18290;SDS011;9271;48.590;8.866;2023-04-19T08:45:02;12.37;;;7.77;;
18290;SDS011;9271;48.590;8.866;2023-04-19T08:47:31;8.27;;;7.43;;
18290;SDS011;9271;48.590;8.866;2023-04-19T08:49:59;7.90;;;7.13;;
18290;SDS011;9271;48.590;8.866;2023-04-19T08:52:26;8.23;;;7.50;;
18290;SDS011;9271;48.590;8.866;2023-04-19T08:54:54;7.87;;;7.17;;
18290;SDS011;9271;48.590;8.866;2023-04-19T08:57:22;7.97;;;7.13;;
18290;SDS011;9271;48.590;8.866;2023-04-19T08:59:48;8.30;;;7.50;;
18290;SDS011;9271;48.590;8.866;2023-04-19T09:02:25;9.87;;;8.07;;
18290;SDS011;9271;48.590;8.866;2023-04-19T09:04:52;8.80;;;7.90;;
18290;SDS011;9271;48.590;8.866;2023-04-19T09:07:24;7.93;;;7.23;;
18290;SDS011;9271;48.590;8.866;2023-04-19T09:10:03;8.70;;;7.80;;
18290;SDS011;9271;48.590;8.866;2023-04-19T09:12:31;9.30;;;8.20;;
18290;SDS011;9271;48.590;8.866;2023-04-19T09:14:59;9.23;;;8.33;;
18290;SDS011;9271;48.590;8.866;2023-04-19T09:17:27;9.40;;;8.50;;
18290;SDS011;9271;48.590;8.866;2023-04-19T09:19:54;9.80;;;8.80;;
18290;SDS011;9271;48.590;8.866;2023-04-19T09:22:21;9.83;;;8.87;;
18290;SDS011;9271;48.590;8.866;2023-04-19T09:24:49;9.07;;;8.20;;
18290;SDS011;9271;48.590;8.866;2023-04-19T09:27:21;9.73;;;8.80;;
18290;SDS011;9271;48.590;8.866;2023-04-19T09:29:52;9.27;;;8.37;;
18290;SDS011;9271;48.590;8.866;2023-04-19T09:32:19;9.20;;;8.40;;
18290;SDS011;9271;48.590;8.866;2023-04-19T09:34:49;9.23;;;8.33;;
18290;SDS011;9271;48.590;8.866;2023-04-19T09:37:19;9.80;;;8.80;;
18290;SDS011;9271;48.590;8.866;2023-04-19T09:39:47;9.67;;;7.73;;
18290;SDS011;9271;48.590;8.866;2023-04-19T09:42:15;9.10;;;8.20;;
18290;SDS011;9271;48.590;8.866;2023-04-19T09:44:54;9.07;;;8.17;;
18290;SDS011;9271;48.590;8.866;2023-04-19T09:47:21;8.60;;;7.73;;
18290;SDS011;9271;48.590;8.866;2023-04-19T09:50:02;9.80;;;8.03;;
18290;SDS011;9271;48.590;8.866;2023-04-19T09:52:30;8.10;;;7.30;;
18290;SDS011;9271;48.590;8.866;2023-04-19T09:54:58;8.63;;;7.80;;
18290;SDS011;9271;48.590;8.866;2023-04-19T09:57:28;8.03;;;7.33;;
18290;SDS011;9271;48.590;8.866;2023-04-19T09:59:55;7.43;;;6.70;;
18290;SDS011;9271;48.590;8.866;2023-04-19T10:02:23;8.07;;;7.37;;
18290;SDS011;9271;48.590;8.866;2023-04-19T10:04:54;7.20;;;6.50;;
18290;SDS011;9271;48.590;8.866;2023-04-19T10:07:23;8.10;;;7.30;;
18290;SDS011;9271;48.590;8.866;2023-04-19T10:09:50;7.73;;;7.03;;
18290;SDS011;9271;48.590;8.866;2023-04-19T10:12:20;7.90;;;7.20;;
18290;SDS011;9271;48.590;8.866;2023-04-19T10:14:51;7.07;;;6.47;;
18290;SDS011;9271;48.590;8.866;2023-04-19T10:17:20;7.57;;;6.97;;
18290;SDS011;9271;48.590;8.866;2023-04-19T10:19:47;7.80;;;6.47;;
18290;SDS011;9271;48.590;8.866;2023-04-19T10:22:20;7.23;;;6.53;;
18290;SDS011;9271;48.590;8.866;2023-04-19T10:27:37;7.17;;;6.37;;
18290;SDS011;9271;48.590;8.866;2023-04-19T10:30:06;6.83;;;6.23;;
18290;SDS011;9271;48.590;8.866;2023-04-19T10:32:43;7.17;;;6.47;;
18290;SDS011;9271;48.590;8.866;2023-04-19T10:35:15;6.47;;;5.87;;
18290;SDS011;9271;48.590;8.866;2023-04-19T10:43:24;7.33;;;6.60;;
18290;SDS011;9271;48.590;8.866;2023-04-19T10:45:53;6.67;;;6.07;;
18290;SDS011;9271;48.590;8.866;2023-04-19T10:48:33;6.73;;;6.10;;
18290;SDS011;9271;48.590;8.866;2023-04-19T10:51:02;6.33;;;5.73;;
18290;SDS011;9271;48.590;8.866;2023-04-19T10:53:47;7.20;;;6.53;;
18290;SDS011;9271;48.590;8.866;2023-04-19T10:56:16;7.70;;;6.90;;
18290;SDS011;9271;48.590;8.866;2023-04-19T11:01:46;9.50;;;7.60;;
18290;SDS011;9271;48.590;8.866;2023-04-19T11:04:15;9.00;;;7.73;;
18290;SDS011;9271;48.590;8.866;2023-04-19T11:06:56;7.90;;;7.13;;
18290;SDS011;9271;48.590;8.866;2023-04-19T11:09:26;7.63;;;6.83;;
18290;SDS011;9271;48.590;8.866;2023-04-19T11:11:56;8.17;;;7.37;;
18290;SDS011;9271;48.590;8.866;2023-04-19T11:14:24;8.40;;;7.50;;
18290;SDS011;9271;48.590;8.866;2023-04-19T11:16:53;8.57;;;7.70;;
18290;SDS011;9271;48.590;8.866;2023-04-19T11:19:20;8.07;;;7.23;;
18290;SDS011;9271;48.590;8.866;2023-04-19T11:21:47;7.77;;;6.93;;
18290;SDS011;9271;48.590;8.866;2023-04-19T11:24:14;8.73;;;7.53;;
18290;SDS011;9271;48.590;8.866;2023-04-19T11:26:42;9.13;;;7.20;;
18290;SDS011;9271;48.590;8.866;2023-04-19T11:29:10;8.17;;;7.37;;
18290;SDS011;9271;48.590;8.866;2023-04-19T11:31:36;7.70;;;6.90;;
18290;SDS011;9271;48.590;8.866;2023-04-19T11:34:04;7.23;;;6.63;;
18290;SDS011;9271;48.590;8.866;2023-04-19T11:36:31;7.70;;;6.90;;
18290;SDS011;9271;48.590;8.866;2023-04-19T11:39:00;7.77;;;7.10;;
18290;SDS011;9271;48.590;8.866;2023-04-19T11:41:34;9.27;;;6.70;;
18290;SDS011;9271;48.590;8.866;2023-04-19T11:44:03;7.40;;;6.67;;
18290;SDS011;9271;48.590;8.866;2023-04-19T11:46:29;7.77;;;7.07;;
18290;SDS011;9271;48.590;8.866;2023-04-19T11:48:56;8.17;;;6.47;;
18290;SDS011;9271;48.590;8.866;2023-04-19T11:51:24;7.27;;;6.60;;
18290;SDS011;9271;48.590;8.866;2023-04-19T11:53:51;6.87;;;6.23;;
18290;SDS011;9271;48.590;8.866;2023-04-19T11:56:18;5.90;;;5.30;;
18290;SDS011;9271;48.590;8.866;2023-04-19T11:58:45;5.57;;;5.07;;
18290;SDS011;9271;48.590;8.866;2023-04-19T12:01:13;6.63;;;5.90;;
18290;SDS011;9271;48.590;8.866;2023-04-19T12:03:41;7.00;;;6.40;;
18290;SDS011;9271;48.590;8.866;2023-04-19T12:06:11;7.07;;;6.43;;
18290;SDS011;9271;48.590;8.866;2023-04-19T12:08:41;8.60;;;6.90;;
18290;SDS011;9271;48.590;8.866;2023-04-19T12:11:08;8.17;;;7.00;;
18290;SDS011;9271;48.590;8.866;2023-04-19T12:13:35;7.87;;;6.77;;
18290;SDS011;9271;48.590;8.866;2023-04-19T12:16:02;7.23;;;6.57;;
18290;SDS011;9271;48.590;8.866;2023-04-19T12:18:40;7.70;;;6.90;;
18290;SDS011;9271;48.590;8.866;2023-04-19T12:21:09;6.90;;;6.20;;
18290;SDS011;9271;48.590;8.866;2023-04-19T12:23:36;6.87;;;6.17;;
18290;SDS011;9271;48.590;8.866;2023-04-19T12:26:04;7.30;;;6.60;;
18290;SDS011;9271;48.590;8.866;2023-04-19T12:28:31;7.80;;;7.00;;
18290;SDS011;9271;48.590;8.866;2023-04-19T12:30:58;8.60;;;7.77;;
18290;SDS011;9271;48.590;8.866;2023-04-19T12:33:24;7.83;;;7.10;;
18290;SDS011;9271;48.590;8.866;2023-04-19T12:35:51;7.67;;;6.87;;
18290;SDS011;9271;48.590;8.866;2023-04-19T12:38:18;9.60;;;7.33;;
18290;SDS011;9271;48.590;8.866;2023-04-19T12:40:44;10.07;;;7.60;;
18290;SDS011;9271;48.590;8.866;2023-04-19T12:43:12;9.93;;;7.80;;
18290;SDS011;9271;48.590;8.866;2023-04-19T12:45:39;10.10;;;9.10;;
18290;SDS011;9271;48.590;8.866;2023-04-19T12:48:05;9.97;;;8.77;;
18290;SDS011;9271;48.590;8.866;2023-04-19T12:50:32;11.07;;;8.77;;
18290;SDS011;9271;48.590;8.866;2023-04-19T12:52:59;10.37;;;9.20;;
18290;SDS011;9271;48.590;8.866;2023-04-19T12:55:25;14.93;;;9.77;;
18290;SDS011;9271;48.590;8.866;2023-04-19T12:57:52;11.43;;;9.07;;
18290;SDS011;9271;48.590;8.866;2023-04-19T13:00:20;11.50;;;10.30;;
18290;SDS011;9271;48.590;8.866;2023-04-19T13:02:47;13.57;;;11.13;;
18290;SDS011;9271;48.590;8.866;2023-04-19T13:05:13;13.40;;;11.17;;
18290;SDS011;9271;48.590;8.866;2023-04-19T13:07:40;11.80;;;9.97;;
18290;SDS011;9271;48.590;8.866;2023-04-19T13:10:07;10.17;;;9.17;;
18290;SDS011;9271;48.590;8.866;2023-04-19T13:12:34;10.23;;;9.30;;
18290;SDS011;9271;48.590;8.866;2023-04-19T13:15:01;11.73;;;8.80;;
18290;SDS011;9271;48.590;8.866;2023-04-19T13:17:29;11.03;;;9.80;;
18290;SDS011;9271;48.590;8.866;2023-04-19T13:19:56;11.30;;;10.13;;
18290;SDS011;9271;48.590;8.866;2023-04-19T13:22:22;9.30;;;8.27;;
18290;SDS011;9271;48.590;8.866;2023-04-19T13:24:49;8.80;;;7.90;;
18290;SDS011;9271;48.590;8.866;2023-04-19T13:27:16;9.27;;;8.37;;
18290;SDS011;9271;48.590;8.866;2023-04-19T13:29:43;8.17;;;7.40;;
18290;SDS011;9271;48.590;8.866;2023-04-19T13:32:09;8.53;;;7.67;;
18290;SDS011;9271;48.590;8.866;2023-04-19T13:34:38;8.00;;;7.30;;
18290;SDS011;9271;48.590;8.866;2023-04-19T13:37:05;8.90;;;8.10;;
18290;SDS011;9271;48.590;8.866;2023-04-19T13:39:32;9.30;;;8.40;;
18290;SDS011;9271;48.590;8.866;2023-04-19T13:41:59;9.93;;;8.93;;
18290;SDS011;9271;48.590;8.866;2023-04-19T13:44:26;10.83;;;9.80;;
18290;SDS011;9271;48.590;8.866;2023-04-19T13:46:53;11.63;;;10.43;;
18290;SDS011;9271;48.590;8.866;2023-04-19T13:49:20;13.43;;;12.13;;
18290;SDS011;9271;48.590;8.866;2023-04-19T13:51:48;16.90;;;13.70;;
18290;SDS011;9271;48.590;8.866;2023-04-19T13:54:14;17.90;;;14.37;;
18290;SDS011;9271;48.590;8.866;2023-04-19T13:56:42;17.60;;;14.80;;
18290;SDS011;9271;48.590;8.866;2023-04-19T13:59:09;17.07;;;14.30;;
18290;SDS011;9271;48.590;8.866;2023-04-19T14:01:35;21.00;;;16.43;;
18290;SDS011;9271;48.590;8.866;2023-04-19T14:04:02;18.57;;;15.63;;
18290;SDS011;9271;48.590;8.866;2023-04-19T14:06:29;20.97;;;15.87;;
18290;SDS011;9271;48.590;8.866;2023-04-19T14:08:57;19.87;;;16.03;;
18290;SDS011;9271;48.590;8.866;2023-04-19T14:11:24;19.50;;;15.87;;
18290;SDS011;9271;48.590;8.866;2023-04-19T14:13:51;17.90;;;14.97;;
18290;SDS011;9271;48.590;8.866;2023-04-19T14:16:18;19.13;;;14.83;;
18290;SDS011;9271;48.590;8.866;2023-04-19T14:18:44;18.23;;;15.37;;
18290;SDS011;9271;48.590;8.866;2023-04-19T14:21:11;18.20;;;14.73;;
18290;SDS011;9271;48.590;8.866;2023-04-19T14:23:38;16.40;;;14.37;;
18290;SDS011;9271;48.590;8.866;2023-04-19T14:26:06;17.83;;;14.70;;
18290;SDS011;9271;48.590;8.866;2023-04-19T14:28:33;16.00;;;13.60;;
18290;SDS011;9271;48.590;8.866;2023-04-19T14:30:59;15.03;;;13.43;;
18290;SDS011;9271;48.590;8.866;2023-04-19T14:33:26;16.93;;;13.80;;
18290;SDS011;9271;48.590;8.866;2023-04-19T14:35:53;15.43;;;13.40;;
18290;SDS011;9271;48.590;8.866;2023-04-19T14:38:19;17.93;;;13.53;;
18290;SDS011;9271;48.590;8.866;2023-04-19T14:40:46;15.60;;;13.07;;
18290;SDS011;9271;48.590;8.866;2023-04-19T14:43:14;18.37;;;13.40;;
18290;SDS011;9271;48.590;8.866;2023-04-19T14:45:41;17.13;;;13.33;;
18290;SDS011;9271;48.590;8.866;2023-04-19T14:48:08;19.73;;;13.97;;
18290;SDS011;9271;48.590;8.866;2023-04-19T14:50:34;16.37;;;13.80;;
18290;SDS011;9271;48.590;8.866;2023-04-19T14:53:01;17.63;;;13.37;;
18290;SDS011;9271;48.590;8.866;2023-04-19T14:55:28;15.47;;;13.00;;
18290;SDS011;9271;48.590;8.866;2023-04-19T14:57:54;21.73;;;13.77;;
18290;SDS011;9271;48.590;8.866;2023-04-19T15:00:22;16.13;;;13.37;;